Webcam Richtung Westen

Webcam27

Webcam Richtung Norden

Webcam36

Webcam Richtung Osten

Webcam09

Wetter(Würzburg):
190430Z AUTO 32006G10KT 20KM FEW063 BKN076 02/M00 Q1030
		
Sun 19.01.2020, 04:30 UTC

Sichtweite bis zu 20 km
Wind aus 320° mit 06kt, in Böen bis zu 10kt
vereinzelte Wolken (1-2 Achtel) bei 6300 Fuß
unterbrochene Wolkendecke (5-7 Achtel) bei 7600 Fuß
Temperatur: 2 °C
Taupunkt: 0 °C
QNH: 1030 hPa
                         Heute        Morgen
                         19.01        20.01
--------------------------------------------
Beginn der Dämmerung     06:33        06:32
Sonnenaufgang            07:09        07:09
Sonnenuntergang          15:52        15:53
Ende der Dämmerung       16:28        16:30

Alle Zeiten in UTC